Terminal Aerodrome Forecast
Issued by NWS

Home | Current Version | Previous Version | Text Only | Print | Product List | Glossary On
Versions: 1 2 3 4 5 6 7 8 9 10 11 12 13 14 15 16
000
FTUS44 KBMX 170739 AAA
TAFEET
TAF AMD
KEET 170739Z 1708/1806 17008KT P6SM BKN025
     FM170900 18006KT P6SM BKN015
     FM171200 18003KT 5SM BR OVC007
     FM171800 20010KT P6SM BKN025 BKN080=

USA.gov is the U.S. government's official web portal to all federal, state and local government web resources and services.